ADDS METAR Data INFO
IDs: Format: Raw Decoded Include TAF

Data at: 1717 UTC 23 Oct 2017

KBRL 231653Z AUTO 20006KT 10SM CLR 14/09 A2985 RMK AO2 SLP108 T01390094
KBRL 231553Z AUTO 17008KT 10SM CLR 11/09 A2987 RMK AO2 SLP115 T01110089
KBRL 231453Z AUTO 28004KT 10SM CLR 11/08 A2986 RMK AO2 SLP111 T01060083 58019
KBRL 231353Z AUTO 00000KT 10SM CLR 09/08 A2990 RMK AO2 PRESFR SLP128 T00890078
KBRL 231253Z AUTO 20004KT 10SM CLR 07/07 A2993 RMK AO2 SLP135 T00720067
KBRL 231153Z AUTO 00000KT 10SM CLR 08/07 A2992 RMK AO2 SLP132 70008 T00780072 10100 20072 58012
KBRL 231053Z AUTO 34003KT 10SM CLR 08/07 A2994 RMK AO2 SLP139 T00780067
KBRL 230953Z AUTO 31003KT 10SM CLR 09/08 A2993 RMK AO2 SLP138 T00890083
KBRL 230853Z AUTO 34003KT 10SM CLR 08/08 A2995 RMK AO2 SLP144 T00830083 58024
KBRL 230753Z AUTO 29003KT 10SM CLR 09/09 A3000 RMK AO2 SLP160 T00890089
KBRL 230653Z AUTO 29003KT 10SM CLR 10/09 A3002 RMK AO2 SLP165 T01000094
KBRL 230553Z AUTO 00000KT 10SM CLR 09/09 A3003 RMK AO2 SLP169 T00940094 10111 20094 402060094 58005
KBRL 230453Z AUTO 00000KT 10SM CLR 10/10 A3002 RMK AO2 SLP168 T01000100
KBRL 230353Z AUTO 00000KT 10SM CLR 10/10 A3004 RMK AO2 SLP174 T01000100
KBRL 230253Z AUTO 00000KT 10SM CLR 11/11 A3004 RMK AO2 SLP174 T01060106 58012
KBRL 230153Z AUTO 00000KT 10SM CLR 11/11 A3006 RMK AO2 SLP180 T01060106
KBRL 230053Z AUTO 00000KT 10SM CLR 11/11 A3007 RMK AO2 SLP183 T01110106
KBRL 222353Z AUTO 00000KT 10SM CLR 11/11 A3008 RMK AO2 SLP185 60000 T01110106 10128 20111 53000
KBRL 222253Z AUTO 00000KT 10SM FEW080 12/09 A3007 RMK AO2 SLP182 T01220094
KBRL 222153Z AUTO 00000KT 10SM FEW120 13/09 A3007 RMK AO2 RAE2056 SLP184 P0000 T01280094
KBRL 222053Z AUTO 33005KT 10SM -RA OVC100 12/10 A3008 RMK AO2 RAB01E15B46 SLP184 P0000 60000 T01220100 51016
KBRL 221953Z AUTO 33006KT 10SM OVC075 12/09 A3006 RMK AO2 SLP177 T01220089
KBRL 221853Z AUTO 33005KT 10SM FEW020 OVC060 12/09 A3005 RMK AO2 SLP175 T01220089
KBRL 221753Z AUTO 36008KT 10SM OVC050 12/10 A3003 RMK AO2 SLP166 60008 T01220100 10122 20111 50009
KBRL 221653Z AUTO 35010G15KT 10SM FEW015 OVC044 12/10 A3004 RMK AO2 RAE1559 SLP171 P0000 T01170100
KBRL 221553Z AUTO 35008KT 10SM -RA OVC033 12/10 A3001 RMK AO2 RAE05B49 SLP162 P0001 T01170100
KBRL 221519Z AUTO 33012KT 10SM FEW010 SCT014 OVC032 11/11 A3000 RMK AO2 RAE05 P0001 T01110106
KBRL 221508Z AUTO 33010KT 10SM SCT010 BKN013 OVC030 11/11 A3000 RMK AO2 RAE05 P0001 T01110106
KBRL 221453Z AUTO 33007KT 9SM -RA SCT012 BKN029 OVC065 12/11 A3000 RMK AO2 RAB07E20B44 SLP157 P0000 60007 T01170106 53023
KBRL 221412Z AUTO 32007KT 10SM -RA FEW008 OVC034 12/11 A2998 RMK AO2 RAB07 P0000 T01170111
KBRL 221353Z AUTO 33007KT 10SM SCT027 OVC033 12/11 A2998 RMK AO2 RAE08 SLP151 P0000 T01170111
KBRL 221331Z AUTO 34008G15KT 10SM BKN025 OVC065 12/11 A2997 RMK AO2 RAE08 P0000 T01170111
KBRL 221253Z AUTO 35009KT 9SM -RA FEW017 FEW075 OVC110 12/11 A2993 RMK AO2 SLP134 P0007 T01170111
KBRL 221228Z AUTO 34007KT 10SM -RA SCT008 SCT023 OVC110 12/11 A2993 RMK AO2 P0005 T01170111
KBRL 221153Z AUTO 34010KT 8SM RA BKN008 BKN050 OVC070 12/12 A2993 RMK AO2 SLP134 P0019 60042 70042 T01170117 10211 20117 51024
KBRL 221128Z AUTO 35008KT 5SM RA BR SCT008 BKN046 OVC070 12/12 A2992 RMK AO2 P0015 T01220122
KBRL 221100Z AUTO 32008G18KT 4SM +RA BR BKN009 BKN022 OVC070 13/12 A2993 RMK AO2 P0003 T01280122
KBRL 221053Z AUTO 33012G18KT 8SM -RA BKN010 OVC070 13/12 A2992 RMK AO2 SLP129 P0003 T01280122
KBRL 221038Z AUTO 32009G18KT 10SM -RA BKN010 OVC070 13/12 A2991 RMK AO2 CIG 008V012 P0001 T01280122
KBRL 220953Z AUTO 33010G18KT 10SM -RA OVC007 13/13 A2988 RMK AO2 RAB0858E34B52 CIG 005V011 SLP116 P0005 T01330128
KBRL 220903Z AUTO 28010KT 7SM RA BKN005 OVC047 16/16 A2988 RMK AO2 LTG DSNT E-S RAB0858 P0002 T01610161
KBRL 220853Z AUTO 33008KT 10SM VCTS FEW007 OVC045 16/16 A2986 RMK AO2 LTG DSNT SE AND S RAE52 SLP107 P0010 60015 T01610161 58005
KBRL 220850Z AUTO 34006KT 10SM VCTS -RA FEW006 OVC045 16/16 A2987 RMK AO2 LTG DSNT SE AND S P0010
KBRL 220810Z AUTO 33005KT 6SM -RA BR FEW006 BKN030 OVC036 16/16 A2987 RMK AO2 LTG DSNT E-SW P0004 T01610161
KBRL 220753Z AUTO 31008KT 5SM RA BR FEW008 OVC028 16/16 A2987 RMK AO2 LTG DSNT E AND SE RAE0657B19 SLP112 P0005 T01610161
KBRL 220737Z AUTO 31006KT 10SM -RA FEW008 OVC026 17/16 A2987 RMK AO2 RAE0657B19 P0000 T01670161
KBRL 220653Z AUTO 33013G16KT 10SM -RA OVC027 17/16 A2987 RMK AO2 LTG DSNT SW RAB47 SLP112 P0000 T01720156
KBRL 220612Z AUTO 32007KT 10SM OVC029 19/15 A2987 RMK AO2 T01940150
KBRL 220553Z AUTO VRB06KT 10SM BKN032 OVC100 21/17 A2988 RMK AO2 SLP112 T02110167 10228 20206 402670161 55002